sensor_id;sensor_type;location;lat;lon;timestamp;pressure;altitude;pressure_sealevel;temperature;humidity
14882;BME280;7533;51.278;12.588;2022-09-24T00:02:37;99923.25;;;22.87;62.18
14882;BME280;7533;51.278;12.588;2022-09-24T00:07:41;99926.56;;;22.91;62.23
14882;BME280;7533;51.278;12.588;2022-09-24T00:12:44;99927.56;;;22.90;62.14
14882;BME280;7533;51.278;12.588;2022-09-24T00:17:48;99927.66;;;22.88;62.13
14882;BME280;7533;51.278;12.588;2022-09-24T00:22:52;99930.59;;;22.85;62.31
14882;BME280;7533;51.278;12.588;2022-09-24T00:27:54;99919.31;;;22.80;62.30
14882;BME280;7533;51.278;12.588;2022-09-24T00:32:57;99922.22;;;22.77;62.42
14882;BME280;7533;51.278;12.588;2022-09-24T00:38:01;99910.84;;;22.74;62.68
14882;BME280;7533;51.278;12.588;2022-09-24T00:43:27;99911.22;;;22.69;62.75
14882;BME280;7533;51.278;12.588;2022-09-24T00:48:30;99907.88;;;22.65;62.83
14882;BME280;7533;51.278;12.588;2022-09-24T00:53:36;99906.31;;;22.63;62.92
14882;BME280;7533;51.278;12.588;2022-09-24T00:58:38;99907.41;;;22.60;63.04
14882;BME280;7533;51.278;12.588;2022-09-24T01:03:41;99903.13;;;22.58;63.40
14882;BME280;7533;51.278;12.588;2022-09-24T01:08:46;99892.56;;;22.55;63.41
14882;BME280;7533;51.278;12.588;2022-09-24T01:14:00;99894.66;;;22.51;63.77
14882;BME280;7533;51.278;12.588;2022-09-24T01:19:16;99893.91;;;22.49;63.77
14882;BME280;7533;51.278;12.588;2022-09-24T01:24:38;99881.69;;;22.45;63.80
14882;BME280;7533;51.278;12.588;2022-09-24T01:29:59;99884.59;;;22.42;63.98
14882;BME280;7533;51.278;12.588;2022-09-24T01:35:08;99879.56;;;22.37;64.05
14882;BME280;7533;51.278;12.588;2022-09-24T01:40:14;99883.38;;;22.35;64.27
14882;BME280;7533;51.278;12.588;2022-09-24T01:45:19;99880.91;;;22.32;64.46
14882;BME280;7533;51.278;12.588;2022-09-24T01:50:23;99877.50;;;22.30;64.55
14882;BME280;7533;51.278;12.588;2022-09-24T01:55:30;99872.34;;;22.27;64.55
14882;BME280;7533;51.278;12.588;2022-09-24T02:00:37;99869.91;;;22.24;64.85
14882;BME280;7533;51.278;12.588;2022-09-24T02:05:47;99877.22;;;22.22;64.89
14882;BME280;7533;51.278;12.588;2022-09-24T02:10:55;99867.56;;;22.19;64.86
14882;BME280;7533;51.278;12.588;2022-09-24T02:16:03;99871.34;;;22.16;65.19
14882;BME280;7533;51.278;12.588;2022-09-24T02:21:09;99860.81;;;22.13;65.40
14882;BME280;7533;51.278;12.588;2022-09-24T02:26:13;99860.94;;;22.12;65.37
14882;BME280;7533;51.278;12.588;2022-09-24T02:31:19;99854.78;;;22.10;65.38
14882;BME280;7533;51.278;12.588;2022-09-24T02:36:26;99855.88;;;22.07;65.49
14882;BME280;7533;51.278;12.588;2022-09-24T02:41:30;99849.63;;;22.07;65.53
14882;BME280;7533;51.278;12.588;2022-09-24T02:46:34;99847.91;;;22.06;65.56
14882;BME280;7533;51.278;12.588;2022-09-24T02:51:37;99842.75;;;22.03;65.72
14882;BME280;7533;51.278;12.588;2022-09-24T02:56:40;99839.22;;;22.02;65.85
14882;BME280;7533;51.278;12.588;2022-09-24T03:01:44;99840.19;;;22.01;66.13
14882;BME280;7533;51.278;12.588;2022-09-24T03:06:47;99836.75;;;21.99;66.06
14882;BME280;7533;51.278;12.588;2022-09-24T03:11:49;99842.13;;;21.99;66.04
14882;BME280;7533;51.278;12.588;2022-09-24T03:16:54;99835.16;;;21.97;66.16
14882;BME280;7533;51.278;12.588;2022-09-24T03:21:56;99839.69;;;21.96;66.34
14882;BME280;7533;51.278;12.588;2022-09-24T03:26:59;99833.53;;;21.94;66.25
14882;BME280;7533;51.278;12.588;2022-09-24T03:32:03;99826.44;;;21.93;66.33
14882;BME280;7533;51.278;12.588;2022-09-24T03:37:06;99825.72;;;21.91;66.39
14882;BME280;7533;51.278;12.588;2022-09-24T03:42:09;99822.19;;;21.90;66.45
14882;BME280;7533;51.278;12.588;2022-09-24T03:47:13;99814.22;;;21.89;66.69
14882;BME280;7533;51.278;12.588;2022-09-24T03:52:15;99807.09;;;21.88;66.62
14882;BME280;7533;51.278;12.588;2022-09-24T03:57:18;99805.38;;;21.87;66.71
14882;BME280;7533;51.278;12.588;2022-09-24T04:02:22;99792.03;;;21.85;66.77
14882;BME280;7533;51.278;12.588;2022-09-24T04:07:25;99789.47;;;21.84;66.80
14882;BME280;7533;51.278;12.588;2022-09-24T04:12:27;99786.88;;;21.82;66.83
14882;BME280;7533;51.278;12.588;2022-09-24T04:17:32;99783.31;;;21.82;67.04
14882;BME280;7533;51.278;12.588;2022-09-24T04:22:35;99788.72;;;21.82;66.97
14882;BME280;7533;51.278;12.588;2022-09-24T04:27:39;99782.47;;;21.81;67.03
14882;BME280;7533;51.278;12.588;2022-09-24T04:32:43;99778.06;;;21.80;67.34
14882;BME280;7533;51.278;12.588;2022-09-24T04:37:46;99778.19;;;21.79;67.17
14882;BME280;7533;51.278;12.588;2022-09-24T04:42:49;99780.91;;;21.79;67.12
14882;BME280;7533;51.278;12.588;2022-09-24T04:47:54;99781.00;;;21.77;67.41
14882;BME280;7533;51.278;12.588;2022-09-24T04:52:58;99780.13;;;21.77;67.21
14882;BME280;7533;51.278;12.588;2022-09-24T04:58:00;99788.34;;;21.75;67.63
14882;BME280;7533;51.278;12.588;2022-09-24T05:03:04;99785.78;;;21.74;67.65
14882;BME280;7533;51.278;12.588;2022-09-24T05:08:07;99795.78;;;21.72;67.69
14882;BME280;7533;51.278;12.588;2022-09-24T05:13:10;99802.06;;;21.72;67.73
14882;BME280;7533;51.278;12.588;2022-09-24T05:18:14;99792.25;;;21.71;67.95
14882;BME280;7533;51.278;12.588;2022-09-24T05:23:17;99796.06;;;21.69;67.82
14882;BME280;7533;51.278;12.588;2022-09-24T05:28:19;99800.59;;;21.68;68.06
14882;BME280;7533;51.278;12.588;2022-09-24T05:33:24;99797.13;;;21.66;68.26
14882;BME280;7533;51.278;12.588;2022-09-24T05:38:26;99807.06;;;21.65;68.22
14882;BME280;7533;51.278;12.588;2022-09-24T05:43:30;99815.97;;;21.66;68.16
14882;BME280;7533;51.278;12.588;2022-09-24T05:48:34;99816.97;;;21.65;68.22
14882;BME280;7533;51.278;12.588;2022-09-24T05:53:37;99830.44;;;21.65;68.12
14882;BME280;7533;51.278;12.588;2022-09-24T05:58:39;99829.56;;;21.64;68.48
14882;BME280;7533;51.278;12.588;2022-09-24T06:03:43;99825.19;;;21.63;68.30
14882;BME280;7533;51.278;12.588;2022-09-24T06:08:46;99826.88;;;21.64;68.33
14882;BME280;7533;51.278;12.588;2022-09-24T06:13:49;99825.19;;;21.63;68.51
14882;BME280;7533;51.278;12.588;2022-09-24T06:18:53;99819.78;;;21.63;68.64
14882;BME280;7533;51.278;12.588;2022-09-24T06:23:55;99817.09;;;21.63;68.51
14882;BME280;7533;51.278;12.588;2022-09-24T06:28:58;99820.78;;;21.62;68.51
14882;BME280;7533;51.278;12.588;2022-09-24T06:34:07;99806.31;;;21.63;68.50
14882;BME280;7533;51.278;12.588;2022-09-24T06:39:10;99806.31;;;21.63;68.65
14882;BME280;7533;51.278;12.588;2022-09-24T06:44:12;99796.41;;;21.64;68.54
14882;BME280;7533;51.278;12.588;2022-09-24T06:49:16;99794.56;;;21.64;68.75
14882;BME280;7533;51.278;12.588;2022-09-24T06:54:19;99795.41;;;21.65;68.80
14882;BME280;7533;51.278;12.588;2022-09-24T06:59:22;99806.09;;;21.67;68.92
14882;BME280;7533;51.278;12.588;2022-09-24T07:04:26;99804.00;;;21.70;68.61
14882;BME280;7533;51.278;12.588;2022-09-24T07:09:29;99802.16;;;21.71;68.81
14882;BME280;7533;51.278;12.588;2022-09-24T07:14:32;99806.56;;;21.72;68.32
14882;BME280;7533;51.278;12.588;2022-09-24T07:19:36;99811.88;;;21.73;67.62
14882;BME280;7533;51.278;12.588;2022-09-24T07:24:38;99809.16;;;21.73;67.39
14882;BME280;7533;51.278;12.588;2022-09-24T07:29:41;99819.19;;;21.82;67.58
14882;BME280;7533;51.278;12.588;2022-09-24T07:34:45;99819.19;;;21.82;66.61
14882;BME280;7533;51.278;12.588;2022-09-24T07:39:48;99826.69;;;21.79;66.53
14882;BME280;7533;51.278;12.588;2022-09-24T07:44:51;99828.63;;;21.77;65.75
14882;BME280;7533;51.278;12.588;2022-09-24T07:49:55;99828.44;;;21.45;58.21
14882;BME280;7533;51.278;12.588;2022-09-24T07:54:58;99844.03;;;20.92;56.84
14882;BME280;7533;51.278;12.588;2022-09-24T08:00:01;99835.75;;;20.71;57.41
14882;BME280;7533;51.278;12.588;2022-09-24T08:05:13;99830.25;;;20.96;59.45
14882;BME280;7533;51.278;12.588;2022-09-24T08:10:17;99825.56;;;21.11;59.89
14882;BME280;7533;51.278;12.588;2022-09-24T08:15:19;99826.69;;;21.20;60.42
14882;BME280;7533;51.278;12.588;2022-09-24T08:20:24;99820.31;;;21.33;61.27
14882;BME280;7533;51.278;12.588;2022-09-24T08:25:27;99826.22;;;21.38;61.42
14882;BME280;7533;51.278;12.588;2022-09-24T08:30:30;99831.47;;;21.40;61.45
14882;BME280;7533;51.278;12.588;2022-09-24T08:35:35;99838.34;;;21.44;61.36
14882;BME280;7533;51.278;12.588;2022-09-24T08:40:43;99831.00;;;21.46;61.57
14882;BME280;7533;51.278;12.588;2022-09-24T08:45:52;99835.91;;;21.52;61.72
14882;BME280;7533;51.278;12.588;2022-09-24T08:51:17;99843.53;;;21.58;61.81
14882;BME280;7533;51.278;12.588;2022-09-24T08:56:24;99837.16;;;21.59;62.12
14882;BME280;7533;51.278;12.588;2022-09-24T09:01:34;99840.22;;;21.66;62.77
14882;BME280;7533;51.278;12.588;2022-09-24T09:06:51;99837.69;;;21.76;64.09
14882;BME280;7533;51.278;12.588;2022-09-24T09:11:59;99835.50;;;21.81;64.61
14882;BME280;7533;51.278;12.588;2022-09-24T09:17:11;99828.78;;;21.86;65.18
14882;BME280;7533;51.278;12.588;2022-09-24T09:22:23;99826.72;;;21.90;65.71
14882;BME280;7533;51.278;12.588;2022-09-24T09:27:26;99819.22;;;21.93;65.66
14882;BME280;7533;51.278;12.588;2022-09-24T09:32:42;99822.53;;;21.97;66.36
14882;BME280;7533;51.278;12.588;2022-09-24T09:37:54;99820.56;;;21.99;66.76
14882;BME280;7533;51.278;12.588;2022-09-24T09:43:00;99817.66;;;22.02;67.01
14882;BME280;7533;51.278;12.588;2022-09-24T09:48:04;99812.88;;;22.06;66.76
14882;BME280;7533;51.278;12.588;2022-09-24T09:53:22;99817.16;;;22.08;66.92
14882;BME280;7533;51.278;12.588;2022-09-24T09:58:27;99813.75;;;22.06;66.30
14882;BME280;7533;51.278;12.588;2022-09-24T10:03:32;99814.69;;;22.05;65.86
14882;BME280;7533;51.278;12.588;2022-09-24T10:08:36;99816.44;;;22.06;65.66
14882;BME280;7533;51.278;12.588;2022-09-24T10:13:40;99816.97;;;22.11;65.22
14882;BME280;7533;51.278;12.588;2022-09-24T10:18:45;99810.59;;;22.12;65.13
14882;BME280;7533;51.278;12.588;2022-09-24T10:23:50;99809.97;;;22.20;65.24
14882;BME280;7533;51.278;12.588;2022-09-24T10:28:53;99802.38;;;22.25;65.57
14882;BME280;7533;51.278;12.588;2022-09-24T10:34:19;99815.72;;;22.27;65.59
14882;BME280;7533;51.278;12.588;2022-09-24T10:39:24;99810.22;;;22.28;65.77
14882;BME280;7533;51.278;12.588;2022-09-24T10:44:33;99818.19;;;22.30;66.17
14882;BME280;7533;51.278;12.588;2022-09-24T10:49:48;99806.28;;;22.32;66.86
14882;BME280;7533;51.278;12.588;2022-09-24T10:55:05;99802.84;;;22.41;66.80
14882;BME280;7533;51.278;12.588;2022-09-24T11:00:15;99804.94;;;22.38;66.51
14882;BME280;7533;51.278;12.588;2022-09-24T11:05:21;99804.94;;;22.38;66.61
14882;BME280;7533;51.278;12.588;2022-09-24T11:10:35;99806.41;;;22.42;66.37
14882;BME280;7533;51.278;12.588;2022-09-24T11:15:59;99795.38;;;22.45;66.00
14882;BME280;7533;51.278;12.588;2022-09-24T11:21:21;99793.16;;;22.50;65.69
14882;BME280;7533;51.278;12.588;2022-09-24T11:26:34;99796.09;;;22.47;65.74
14882;BME280;7533;51.278;12.588;2022-09-24T11:31:49;99784.34;;;22.48;65.78
14882;BME280;7533;51.278;12.588;2022-09-24T11:37:08;99785.94;;;22.51;65.80
14882;BME280;7533;51.278;12.588;2022-09-24T11:42:21;99781.13;;;22.54;65.56
14882;BME280;7533;51.278;12.588;2022-09-24T11:47:38;99771.94;;;22.57;65.51
14882;BME280;7533;51.278;12.588;2022-09-24T11:52:45;99781.00;;;22.56;65.30
14882;BME280;7533;51.278;12.588;2022-09-24T11:57:53;99781.63;;;22.59;65.15
14882;BME280;7533;51.278;12.588;2022-09-24T12:03:01;99773.16;;;22.64;64.86
14882;BME280;7533;51.278;12.588;2022-09-24T12:08:10;99761.00;;;22.69;64.65
14882;BME280;7533;51.278;12.588;2022-09-24T12:13:20;99765.13;;;22.85;64.39
14882;BME280;7533;51.278;12.588;2022-09-24T12:18:26;99764.97;;;22.98;63.94
14882;BME280;7533;51.278;12.588;2022-09-24T12:23:34;99763.69;;;23.13;63.08
14882;BME280;7533;51.278;12.588;2022-09-24T12:28:47;99755.66;;;23.22;62.92
14882;BME280;7533;51.278;12.588;2022-09-24T12:34:18;99747.03;;;23.29;62.75
14882;BME280;7533;51.278;12.588;2022-09-24T12:39:29;99750.81;;;23.37;62.12
14882;BME280;7533;51.278;12.588;2022-09-24T12:44:41;99750.56;;;23.40;62.35
14882;BME280;7533;51.278;12.588;2022-09-24T12:49:51;99751.72;;;23.47;61.97
14882;BME280;7533;51.278;12.588;2022-09-24T12:54:58;99749.50;;;23.53;61.85
14882;BME280;7533;51.278;12.588;2022-09-24T13:00:35;99737.53;;;23.55;61.65
14882;BME280;7533;51.278;12.588;2022-09-24T13:05:47;99727.94;;;23.62;61.17
14882;BME280;7533;51.278;12.588;2022-09-24T13:10:53;99723.44;;;23.72;61.09
14882;BME280;7533;51.278;12.588;2022-09-24T13:16:01;99730.75;;;23.82;60.74
14882;BME280;7533;51.278;12.588;2022-09-24T13:21:06;99713.19;;;23.97;60.51
14882;BME280;7533;51.278;12.588;2022-09-24T13:26:14;99707.34;;;24.01;60.58
14882;BME280;7533;51.278;12.588;2022-09-24T13:31:43;99713.09;;;24.08;60.09
14882;BME280;7533;51.278;12.588;2022-09-24T13:36:54;99704.84;;;24.10;59.92
14882;BME280;7533;51.278;12.588;2022-09-24T13:42:05;99712.69;;;24.22;59.11
14882;BME280;7533;51.278;12.588;2022-09-24T13:47:15;99723.16;;;24.37;58.73
14882;BME280;7533;51.278;12.588;2022-09-24T13:52:28;99723.06;;;24.48;58.59
14882;BME280;7533;51.278;12.588;2022-09-24T13:57:41;99719.47;;;24.57;58.58
14882;BME280;7533;51.278;12.588;2022-09-24T14:02:54;99708.38;;;24.50;58.57
14882;BME280;7533;51.278;12.588;2022-09-24T14:08:02;99701.41;;;24.48;58.51
14882;BME280;7533;51.278;12.588;2022-09-24T14:13:14;99705.81;;;24.49;58.54
14882;BME280;7533;51.278;12.588;2022-09-24T14:18:21;99705.53;;;24.52;59.11
14882;BME280;7533;51.278;12.588;2022-09-24T14:23:27;99700.09;;;24.52;58.79
14882;BME280;7533;51.278;12.588;2022-09-24T14:28:32;99703.56;;;24.54;59.15
14882;BME280;7533;51.278;12.588;2022-09-24T14:33:37;99707.81;;;24.57;58.84
14882;BME280;7533;51.278;12.588;2022-09-24T14:38:49;99704.09;;;24.58;58.99
14882;BME280;7533;51.278;12.588;2022-09-24T14:43:58;99701.41;;;24.67;58.94
14882;BME280;7533;51.278;12.588;2022-09-24T14:49:05;99694.88;;;24.60;58.16
14882;BME280;7533;51.278;12.588;2022-09-24T14:54:19;99700.13;;;24.62;58.75
14882;BME280;7533;51.278;12.588;2022-09-24T14:59:28;99706.69;;;24.69;58.11
14882;BME280;7533;51.278;12.588;2022-09-24T15:04:32;99701.69;;;24.74;58.61
14882;BME280;7533;51.278;12.588;2022-09-24T15:09:35;99708.41;;;24.70;58.35
14882;BME280;7533;51.278;12.588;2022-09-24T15:14:38;99706.41;;;24.72;58.65
14882;BME280;7533;51.278;12.588;2022-09-24T15:19:42;99709.13;;;24.72;58.59
14882;BME280;7533;51.278;12.588;2022-09-24T15:24:46;99707.25;;;24.72;57.80
14882;BME280;7533;51.278;12.588;2022-09-24T15:29:49;99704.41;;;24.84;58.03
14882;BME280;7533;51.278;12.588;2022-09-24T15:34:53;99706.00;;;24.86;58.63
14882;BME280;7533;51.278;12.588;2022-09-24T15:39:58;99698.16;;;24.93;58.41
14882;BME280;7533;51.278;12.588;2022-09-24T15:45:12;99698.72;;;24.96;58.71
14882;BME280;7533;51.278;12.588;2022-09-24T15:50:18;99700.28;;;24.99;58.07
14882;BME280;7533;51.278;12.588;2022-09-24T15:55:22;99703.53;;;25.02;58.78
14882;BME280;7533;51.278;12.588;2022-09-24T16:00:24;99696.44;;;25.01;59.13
14882;BME280;7533;51.278;12.588;2022-09-24T16:05:28;99707.25;;;25.01;59.43
14882;BME280;7533;51.278;12.588;2022-09-24T16:10:31;99699.88;;;25.03;59.33
14882;BME280;7533;51.278;12.588;2022-09-24T16:15:34;99703.16;;;25.17;59.68
14882;BME280;7533;51.278;12.588;2022-09-24T16:20:39;99703.00;;;25.18;60.39
14882;BME280;7533;51.278;12.588;2022-09-24T16:25:53;99704.00;;;25.17;60.81
14882;BME280;7533;51.278;12.588;2022-09-24T16:30:56;99708.13;;;25.21;60.59
14882;BME280;7533;51.278;12.588;2022-09-24T16:36:04;99710.97;;;24.71;53.17
14882;BME280;7533;51.278;12.588;2022-09-24T16:41:07;99711.03;;;24.31;52.64
14882;BME280;7533;51.278;12.588;2022-09-24T16:46:11;99716.00;;;24.26;52.13
14882;BME280;7533;51.278;12.588;2022-09-24T16:51:21;99713.34;;;24.05;52.13
14882;BME280;7533;51.278;12.588;2022-09-24T16:56:24;99718.63;;;24.37;53.98
14882;BME280;7533;51.278;12.588;2022-09-24T17:01:27;99722.63;;;24.52;54.54
14882;BME280;7533;51.278;12.588;2022-09-24T17:06:31;99719.22;;;24.60;54.96
14882;BME280;7533;51.278;12.588;2022-09-24T17:11:35;99715.94;;;24.66;55.26
14882;BME280;7533;51.278;12.588;2022-09-24T17:16:40;99712.81;;;24.71;55.14
14882;BME280;7533;51.278;12.588;2022-09-24T17:21:45;99709.56;;;24.77;55.52
14882;BME280;7533;51.278;12.588;2022-09-24T17:26:50;99716.53;;;24.79;55.51
14882;BME280;7533;51.278;12.588;2022-09-24T17:31:54;99709.41;;;24.78;55.85
14882;BME280;7533;51.278;12.588;2022-09-24T17:36:58;99712.69;;;24.82;56.30
14882;BME280;7533;51.278;12.588;2022-09-24T17:42:01;99723.50;;;24.82;56.04
14882;BME280;7533;51.278;12.588;2022-09-24T17:47:03;99726.22;;;24.82;56.41
14882;BME280;7533;51.278;12.588;2022-09-24T17:52:08;99723.38;;;24.84;56.18
14882;BME280;7533;51.278;12.588;2022-09-24T17:57:14;99727.34;;;24.79;56.51
14882;BME280;7533;51.278;12.588;2022-09-24T18:02:16;99730.63;;;24.73;57.10
14882;BME280;7533;51.278;12.588;2022-09-24T18:07:20;99730.63;;;24.73;56.97
14882;BME280;7533;51.278;12.588;2022-09-24T18:12:25;99730.06;;;24.79;56.85
14882;BME280;7533;51.278;12.588;2022-09-24T18:17:27;99743.88;;;24.76;56.94
14882;BME280;7533;51.278;12.588;2022-09-24T18:22:31;99736.75;;;24.75;57.78
14882;BME280;7533;51.278;12.588;2022-09-24T18:27:34;99738.31;;;24.78;58.39
14882;BME280;7533;51.278;12.588;2022-09-24T18:32:38;99745.31;;;24.80;58.92
14882;BME280;7533;51.278;12.588;2022-09-24T18:37:42;99744.44;;;24.80;58.89
14882;BME280;7533;51.278;12.588;2022-09-24T18:42:45;99745.16;;;24.82;59.20
14882;BME280;7533;51.278;12.588;2022-09-24T18:47:47;99748.03;;;24.80;59.22
14882;BME280;7533;51.278;12.588;2022-09-24T18:52:51;99749.72;;;24.82;59.26
14882;BME280;7533;51.278;12.588;2022-09-24T18:57:54;99746.72;;;24.85;59.58
14882;BME280;7533;51.278;12.588;2022-09-24T19:02:57;99746.72;;;24.85;59.35
14882;BME280;7533;51.278;12.588;2022-09-24T19:08:02;99741.31;;;24.85;59.67
14882;BME280;7533;51.278;12.588;2022-09-24T19:13:05;99742.31;;;24.84;59.64
14882;BME280;7533;51.278;12.588;2022-09-24T19:18:10;99742.63;;;24.80;59.91
14882;BME280;7533;51.278;12.588;2022-09-24T19:23:15;99741.72;;;24.80;59.97
14882;BME280;7533;51.278;12.588;2022-09-24T19:28:17;99742.72;;;24.79;59.83
14882;BME280;7533;51.278;12.588;2022-09-24T19:33:20;99741.19;;;24.76;59.96
14882;BME280;7533;51.278;12.588;2022-09-24T19:38:27;99735.75;;;24.76;60.05
14882;BME280;7533;51.278;12.588;2022-09-24T19:43:30;99733.22;;;24.75;60.05
14882;BME280;7533;51.278;12.588;2022-09-24T19:48:35;99741.72;;;24.80;59.73
14882;BME280;7533;51.278;12.588;2022-09-24T19:53:40;99740.88;;;24.79;59.90
14882;BME280;7533;51.278;12.588;2022-09-24T19:58:44;99742.63;;;24.80;59.76
14882;BME280;7533;51.278;12.588;2022-09-24T20:03:47;99733.75;;;24.78;59.88
14882;BME280;7533;51.278;12.588;2022-09-24T20:08:51;99736.19;;;24.72;60.24
14882;BME280;7533;51.278;12.588;2022-09-24T20:13:54;99743.16;;;24.74;60.18
14882;BME280;7533;51.278;12.588;2022-09-24T20:18:57;99737.72;;;24.74;60.20
14882;BME280;7533;51.278;12.588;2022-09-24T20:24:03;99735.19;;;24.73;60.39
14882;BME280;7533;51.278;12.588;2022-09-24T20:29:07;99732.19;;;24.76;60.38
14882;BME280;7533;51.278;12.588;2022-09-24T20:34:10;99734.19;;;24.74;59.85
14882;BME280;7533;51.278;12.588;2022-09-24T20:39:14;99732.63;;;24.71;59.70
14882;BME280;7533;51.278;12.588;2022-09-24T20:44:17;99741.75;;;24.70;59.77
14882;BME280;7533;51.278;12.588;2022-09-24T20:49:22;99736.88;;;24.74;59.91
14882;BME280;7533;51.278;12.588;2022-09-24T20:54:26;99746.59;;;24.76;59.89
14882;BME280;7533;51.278;12.588;2022-09-24T20:59:29;99744.88;;;24.75;60.13
14882;BME280;7533;51.278;12.588;2022-09-24T21:04:33;99744.03;;;24.75;59.93
14882;BME280;7533;51.278;12.588;2022-09-24T21:09:36;99746.75;;;24.75;60.27
14882;BME280;7533;51.278;12.588;2022-09-24T21:14:39;99746.84;;;24.73;59.77
14882;BME280;7533;51.278;12.588;2022-09-24T21:19:42;99748.00;;;24.71;60.27
14882;BME280;7533;51.278;12.588;2022-09-24T21:24:46;99745.00;;;24.64;60.61
14882;BME280;7533;51.278;12.588;2022-09-24T21:29:49;99754.25;;;24.62;60.51
14882;BME280;7533;51.278;12.588;2022-09-24T21:34:52;99756.50;;;24.57;60.68
14882;BME280;7533;51.278;12.588;2022-09-24T21:39:56;99754.22;;;24.52;61.04
14882;BME280;7533;51.278;12.588;2022-09-24T21:44:58;99757.22;;;24.49;61.00
14882;BME280;7533;51.278;12.588;2022-09-24T21:50:01;99750.38;;;24.45;61.01
14882;BME280;7533;51.278;12.588;2022-09-24T21:55:06;99760.63;;;24.41;61.20
14882;BME280;7533;51.278;12.588;2022-09-24T22:00:12;99754.16;;;24.33;61.44
14882;BME280;7533;51.278;12.588;2022-09-24T22:05:15;99750.75;;;24.31;61.49
14882;BME280;7533;51.278;12.588;2022-09-24T22:10:21;99756.69;;;24.24;61.58
14882;BME280;7533;51.278;12.588;2022-09-24T22:15:24;99750.56;;;24.22;61.98
14882;BME280;7533;51.278;12.588;2022-09-24T22:20:26;99743.59;;;24.20;61.96
14882;BME280;7533;51.278;12.588;2022-09-24T22:25:31;99747.28;;;24.19;62.14
14882;BME280;7533;51.278;12.588;2022-09-24T22:30:33;99741.00;;;24.18;62.02
14882;BME280;7533;51.278;12.588;2022-09-24T22:35:37;99750.97;;;24.18;61.76
14882;BME280;7533;51.278;12.588;2022-09-24T22:40:50;99748.41;;;24.16;62.25
14882;BME280;7533;51.278;12.588;2022-09-24T22:45:55;99748.69;;;24.13;62.13
14882;BME280;7533;51.278;12.588;2022-09-24T22:50:58;99750.50;;;24.13;62.20
14882;BME280;7533;51.278;12.588;2022-09-24T22:56:04;99750.66;;;24.11;62.48
14882;BME280;7533;51.278;12.588;2022-09-24T23:01:09;99749.81;;;24.11;62.46
14882;BME280;7533;51.278;12.588;2022-09-24T23:06:12;99742.69;;;24.10;62.53
14882;BME280;7533;51.278;12.588;2022-09-24T23:11:18;99745.66;;;24.07;62.53
14882;BME280;7533;51.278;12.588;2022-09-24T23:16:22;99753.19;;;24.03;62.59
14882;BME280;7533;51.278;12.588;2022-09-24T23:21:27;99754.75;;;24.06;62.47
14882;BME280;7533;51.278;12.588;2022-09-24T23:26:32;99754.91;;;24.04;62.78
14882;BME280;7533;51.278;12.588;2022-09-24T23:31:36;99751.34;;;24.04;62.62
14882;BME280;7533;51.278;12.588;2022-09-24T23:36:38;99752.47;;;24.01;62.69
14882;BME280;7533;51.278;12.588;2022-09-24T23:41:42;99754.91;;;24.04;62.46
14882;BME280;7533;51.278;12.588;2022-09-24T23:46:45;99743.38;;;24.02;62.69
14882;BME280;7533;51.278;12.588;2022-09-24T23:51:48;99735.28;;;24.02;62.79
14882;BME280;7533;51.278;12.588;2022-09-24T23:56:52;99740.22;;;23.97;62.83
